sensor_id;sensor_type;location;lat;lon;timestamp;temperature;humidity
52181;DHT22;38158;53.338;6.514;2023-04-03T00:01:37;2.00;99.90
52181;DHT22;38158;53.338;6.514;2023-04-03T00:04:04;1.90;99.90
52181;DHT22;38158;53.338;6.514;2023-04-03T00:06:31;1.80;99.90
52181;DHT22;38158;53.338;6.514;2023-04-03T00:08:56;1.80;99.90
52181;DHT22;38158;53.338;6.514;2023-04-03T00:11:22;2.00;99.90
52181;DHT22;38158;53.338;6.514;2023-04-03T00:13:48;1.60;99.90
52181;DHT22;38158;53.338;6.514;2023-04-03T00:16:13;1.60;99.90
52181;DHT22;38158;53.338;6.514;2023-04-03T00:18:40;1.60;99.90
52181;DHT22;38158;53.338;6.514;2023-04-03T00:21:06;1.50;99.90
52181;DHT22;38158;53.338;6.514;2023-04-03T00:23:33;1.50;99.90
52181;DHT22;38158;53.338;6.514;2023-04-03T00:25:59;1.40;99.90
52181;DHT22;38158;53.338;6.514;2023-04-03T00:28:25;1.40;99.90
52181;DHT22;38158;53.338;6.514;2023-04-03T00:30:51;1.70;99.90
52181;DHT22;38158;53.338;6.514;2023-04-03T00:33:16;1.40;99.90
52181;DHT22;38158;53.338;6.514;2023-04-03T00:35:42;1.40;99.90
52181;DHT22;38158;53.338;6.514;2023-04-03T00:38:08;2.30;99.90
52181;DHT22;38158;53.338;6.514;2023-04-03T00:40:36;1.30;99.90
52181;DHT22;38158;53.338;6.514;2023-04-03T00:43:10;1.30;99.90
52181;DHT22;38158;53.338;6.514;2023-04-03T00:45:42;1.30;99.90
52181;DHT22;38158;53.338;6.514;2023-04-03T00:48:13;1.30;99.90
52181;DHT22;38158;53.338;6.514;2023-04-03T00:50:42;2.00;99.90
52181;DHT22;38158;53.338;6.514;2023-04-03T00:53:13;1.30;99.90
52181;DHT22;38158;53.338;6.514;2023-04-03T00:55:40;2.20;99.90
52181;DHT22;38158;53.338;6.514;2023-04-03T00:58:07;1.30;99.90
52181;DHT22;38158;53.338;6.514;2023-04-03T01:00:34;1.40;99.90
52181;DHT22;38158;53.338;6.514;2023-04-03T01:03:01;1.30;99.90
52181;DHT22;38158;53.338;6.514;2023-04-03T01:05:27;1.30;99.90
52181;DHT22;38158;53.338;6.514;2023-04-03T01:07:53;1.30;99.90
52181;DHT22;38158;53.338;6.514;2023-04-03T01:10:19;2.20;99.90
52181;DHT22;38158;53.338;6.514;2023-04-03T01:12:48;1.30;99.90
52181;DHT22;38158;53.338;6.514;2023-04-03T01:15:20;1.30;99.90
52181;DHT22;38158;53.338;6.514;2023-04-03T01:25:36;1.20;99.90
52181;DHT22;38158;53.338;6.514;2023-04-03T01:28:04;1.20;99.90
52181;DHT22;38158;53.338;6.514;2023-04-03T01:33:25;1.20;99.90
52181;DHT22;38158;53.338;6.514;2023-04-03T01:35:50;2.40;99.90
52181;DHT22;38158;53.338;6.514;2023-04-03T01:38:16;2.00;99.90
52181;DHT22;38158;53.338;6.514;2023-04-03T01:40:42;1.20;99.90
52181;DHT22;38158;53.338;6.514;2023-04-03T01:43:08;1.40;99.90
52181;DHT22;38158;53.338;6.514;2023-04-03T01:45:33;1.20;99.90
52181;DHT22;38158;53.338;6.514;2023-04-03T01:47:59;1.70;99.90
52181;DHT22;38158;53.338;6.514;2023-04-03T01:50:25;1.40;99.90
52181;DHT22;38158;53.338;6.514;2023-04-03T01:52:51;1.20;99.90
52181;DHT22;38158;53.338;6.514;2023-04-03T01:55:16;1.20;99.90
52181;DHT22;38158;53.338;6.514;2023-04-03T01:57:42;1.20;99.90
52181;DHT22;38158;53.338;6.514;2023-04-03T02:00:08;1.70;99.90
52181;DHT22;38158;53.338;6.514;2023-04-03T02:02:34;1.10;99.90
52181;DHT22;38158;53.338;6.514;2023-04-03T02:05:00;1.10;99.90
52181;DHT22;38158;53.338;6.514;2023-04-03T02:07:26;1.20;99.90
52181;DHT22;38158;53.338;6.514;2023-04-03T02:09:52;1.10;99.90
52181;DHT22;38158;53.338;6.514;2023-04-03T02:12:18;1.10;99.90
52181;DHT22;38158;53.338;6.514;2023-04-03T02:14:44;1.10;99.90
52181;DHT22;38158;53.338;6.514;2023-04-03T02:17:09;2.10;99.90
52181;DHT22;38158;53.338;6.514;2023-04-03T02:19:35;1.10;99.90
52181;DHT22;38158;53.338;6.514;2023-04-03T02:22:04;1.40;99.90
52181;DHT22;38158;53.338;6.514;2023-04-03T02:24:30;1.20;99.90
52181;DHT22;38158;53.338;6.514;2023-04-03T02:26:56;1.20;99.90
52181;DHT22;38158;53.338;6.514;2023-04-03T02:29:22;1.20;99.90
52181;DHT22;38158;53.338;6.514;2023-04-03T02:31:47;1.20;99.90
52181;DHT22;38158;53.338;6.514;2023-04-03T02:34:13;1.10;99.90
52181;DHT22;38158;53.338;6.514;2023-04-03T02:36:39;1.00;99.90
52181;DHT22;38158;53.338;6.514;2023-04-03T02:39:05;1.00;99.90
52181;DHT22;38158;53.338;6.514;2023-04-03T02:41:30;1.30;99.90
52181;DHT22;38158;53.338;6.514;2023-04-03T02:44:01;1.00;99.90
52181;DHT22;38158;53.338;6.514;2023-04-03T02:46:26;1.10;99.90
52181;DHT22;38158;53.338;6.514;2023-04-03T02:48:52;1.00;99.90
52181;DHT22;38158;53.338;6.514;2023-04-03T02:51:18;1.00;99.90
52181;DHT22;38158;53.338;6.514;2023-04-03T02:53:44;1.00;99.90
52181;DHT22;38158;53.338;6.514;2023-04-03T02:56:11;1.00;99.90
52181;DHT22;38158;53.338;6.514;2023-04-03T02:58:36;1.10;99.90
52181;DHT22;38158;53.338;6.514;2023-04-03T03:01:03;1.90;99.90
52181;DHT22;38158;53.338;6.514;2023-04-03T03:03:28;1.30;99.90
52181;DHT22;38158;53.338;6.514;2023-04-03T03:06:20;0.70;99.90
52181;DHT22;38158;53.338;6.514;2023-04-03T03:08:46;0.80;99.90
52181;DHT22;38158;53.338;6.514;2023-04-03T03:11:12;0.80;99.90
52181;DHT22;38158;53.338;6.514;2023-04-03T03:13:38;0.70;99.90
52181;DHT22;38158;53.338;6.514;2023-04-03T03:16:04;1.30;99.90
52181;DHT22;38158;53.338;6.514;2023-04-03T03:18:30;0.60;99.90
52181;DHT22;38158;53.338;6.514;2023-04-03T03:20:57;1.40;99.90
52181;DHT22;38158;53.338;6.514;2023-04-03T03:23:25;1.00;99.90
52181;DHT22;38158;53.338;6.514;2023-04-03T03:25:56;2.00;99.90
52181;DHT22;38158;53.338;6.514;2023-04-03T03:28:22;0.60;99.90
52181;DHT22;38158;53.338;6.514;2023-04-03T03:30:48;0.70;99.90
52181;DHT22;38158;53.338;6.514;2023-04-03T03:33:13;1.40;99.90
52181;DHT22;38158;53.338;6.514;2023-04-03T03:35:39;0.60;99.90
52181;DHT22;38158;53.338;6.514;2023-04-03T03:38:05;0.50;99.90
52181;DHT22;38158;53.338;6.514;2023-04-03T03:40:31;1.30;99.90
52181;DHT22;38158;53.338;6.514;2023-04-03T03:42:56;0.40;99.90
52181;DHT22;38158;53.338;6.514;2023-04-03T03:45:22;0.40;99.90
52181;DHT22;38158;53.338;6.514;2023-04-03T03:47:48;1.70;99.90
52181;DHT22;38158;53.338;6.514;2023-04-03T03:50:14;0.30;99.90
52181;DHT22;38158;53.338;6.514;2023-04-03T03:52:39;0.20;99.90
52181;DHT22;38158;53.338;6.514;2023-04-03T03:55:06;1.30;99.90
52181;DHT22;38158;53.338;6.514;2023-04-03T03:57:32;0.10;99.90
52181;DHT22;38158;53.338;6.514;2023-04-03T03:59:57;0.10;99.90
52181;DHT22;38158;53.338;6.514;2023-04-03T04:02:23;0.10;99.90
52181;DHT22;38158;53.338;6.514;2023-04-03T04:04:49;0.10;99.90
52181;DHT22;38158;53.338;6.514;2023-04-03T04:07:14;0.10;99.90
52181;DHT22;38158;53.338;6.514;2023-04-03T04:09:40;0.30;99.90
52181;DHT22;38158;53.338;6.514;2023-04-03T04:12:06;0.10;99.90
52181;DHT22;38158;53.338;6.514;2023-04-03T04:14:31;0.00;99.90
52181;DHT22;38158;53.338;6.514;2023-04-03T04:16:57;0.00;99.90
52181;DHT22;38158;53.338;6.514;2023-04-03T04:19:23;0.40;99.90
52181;DHT22;38158;53.338;6.514;2023-04-03T04:21:49;0.00;99.90
52181;DHT22;38158;53.338;6.514;2023-04-03T04:24:15;0.00;99.90
52181;DHT22;38158;53.338;6.514;2023-04-03T04:26:41;0.00;99.90
52181;DHT22;38158;53.338;6.514;2023-04-03T04:29:09;0.00;99.90
52181;DHT22;38158;53.338;6.514;2023-04-03T04:31:35;0.50;99.90
52181;DHT22;38158;53.338;6.514;2023-04-03T04:34:00;0.30;99.90
52181;DHT22;38158;53.338;6.514;2023-04-03T04:36:26;-0.10;99.90
52181;DHT22;38158;53.338;6.514;2023-04-03T04:38:52;0.90;99.90
52181;DHT22;38158;53.338;6.514;2023-04-03T04:41:21;-0.10;99.90
52181;DHT22;38158;53.338;6.514;2023-04-03T04:43:51;-0.20;99.90
52181;DHT22;38158;53.338;6.514;2023-04-03T04:46:17;-0.20;99.90
52181;DHT22;38158;53.338;6.514;2023-04-03T04:48:44;-0.30;99.90
52181;DHT22;38158;53.338;6.514;2023-04-03T04:51:11;1.40;99.90
52181;DHT22;38158;53.338;6.514;2023-04-03T04:53:37;-0.30;99.90
52181;DHT22;38158;53.338;6.514;2023-04-03T04:56:03;-0.40;99.90
52181;DHT22;38158;53.338;6.514;2023-04-03T04:58:28;-0.30;99.90
52181;DHT22;38158;53.338;6.514;2023-04-03T05:01:02;-0.20;99.90
52181;DHT22;38158;53.338;6.514;2023-04-03T05:03:27;-0.20;99.90
52181;DHT22;38158;53.338;6.514;2023-04-03T05:05:53;-0.30;99.90
52181;DHT22;38158;53.338;6.514;2023-04-03T05:08:19;0.70;99.90
52181;DHT22;38158;53.338;6.514;2023-04-03T05:10:46;-0.30;99.90
52181;DHT22;38158;53.338;6.514;2023-04-03T05:13:11;-0.30;99.90
52181;DHT22;38158;53.338;6.514;2023-04-03T05:15:37;0.00;99.90
52181;DHT22;38158;53.338;6.514;2023-04-03T05:18:03;0.90;99.90
52181;DHT22;38158;53.338;6.514;2023-04-03T05:20:30;-0.20;99.90
52181;DHT22;38158;53.338;6.514;2023-04-03T05:22:56;1.10;99.90
52181;DHT22;38158;53.338;6.514;2023-04-03T05:25:22;-0.30;99.90
52181;DHT22;38158;53.338;6.514;2023-04-03T05:27:48;0.20;99.90
52181;DHT22;38158;53.338;6.514;2023-04-03T05:30:14;-0.40;99.90
52181;DHT22;38158;53.338;6.514;2023-04-03T05:32:39;-0.30;99.90
52181;DHT22;38158;53.338;6.514;2023-04-03T05:35:06;-0.30;99.90
52181;DHT22;38158;53.338;6.514;2023-04-03T05:37:33;-0.30;99.90
52181;DHT22;38158;53.338;6.514;2023-04-03T05:39:59;0.50;99.90
52181;DHT22;38158;53.338;6.514;2023-04-03T05:42:24;-0.20;99.90
52181;DHT22;38158;53.338;6.514;2023-04-03T05:44:50;-0.10;99.90
52181;DHT22;38158;53.338;6.514;2023-04-03T05:47:17;0.40;99.90
52181;DHT22;38158;53.338;6.514;2023-04-03T05:49:43;-0.20;99.90
52181;DHT22;38158;53.338;6.514;2023-04-03T05:52:29;-0.40;99.90
52181;DHT22;38158;53.338;6.514;2023-04-03T05:54:56;-0.40;99.90
52181;DHT22;38158;53.338;6.514;2023-04-03T05:57:22;-0.40;99.90
52181;DHT22;38158;53.338;6.514;2023-04-03T05:59:48;-0.40;99.90
52181;DHT22;38158;53.338;6.514;2023-04-03T06:02:17;-0.40;99.90
52181;DHT22;38158;53.338;6.514;2023-04-03T06:04:43;0.90;99.90
52181;DHT22;38158;53.338;6.514;2023-04-03T06:07:14;-0.30;99.90
52181;DHT22;38158;53.338;6.514;2023-04-03T06:09:41;-0.10;99.90
52181;DHT22;38158;53.338;6.514;2023-04-03T06:12:07;0.00;99.90
52181;DHT22;38158;53.338;6.514;2023-04-03T06:14:32;0.00;99.90
52181;DHT22;38158;53.338;6.514;2023-04-03T06:16:58;0.10;99.90
52181;DHT22;38158;53.338;6.514;2023-04-03T06:19:25;0.20;99.90
52181;DHT22;38158;53.338;6.514;2023-04-03T06:21:51;0.30;99.90
52181;DHT22;38158;53.338;6.514;2023-04-03T06:24:18;0.40;99.90
52181;DHT22;38158;53.338;6.514;2023-04-03T06:26:44;0.50;99.90
52181;DHT22;38158;53.338;6.514;2023-04-03T06:29:10;0.50;99.90
52181;DHT22;38158;53.338;6.514;2023-04-03T06:31:36;0.70;99.90
52181;DHT22;38158;53.338;6.514;2023-04-03T06:34:02;0.70;99.90
52181;DHT22;38158;53.338;6.514;2023-04-03T06:36:28;1.10;99.90
52181;DHT22;38158;53.338;6.514;2023-04-03T06:38:55;0.90;99.90
52181;DHT22;38158;53.338;6.514;2023-04-03T06:41:21;0.90;99.90
52181;DHT22;38158;53.338;6.514;2023-04-03T06:43:47;1.80;99.90
52181;DHT22;38158;53.338;6.514;2023-04-03T06:46:17;1.10;99.90
52181;DHT22;38158;53.338;6.514;2023-04-03T06:48:44;1.40;99.90
52181;DHT22;38158;53.338;6.514;2023-04-03T06:51:22;1.60;99.90
52181;DHT22;38158;53.338;6.514;2023-04-03T06:53:48;2.20;99.90
52181;DHT22;38158;53.338;6.514;2023-04-03T06:56:14;1.40;99.90
52181;DHT22;38158;53.338;6.514;2023-04-03T06:58:40;1.40;99.90
52181;DHT22;38158;53.338;6.514;2023-04-03T07:01:07;1.60;99.90
52181;DHT22;38158;53.338;6.514;2023-04-03T07:03:33;1.80;99.90
52181;DHT22;38158;53.338;6.514;2023-04-03T07:05:59;1.70;99.90
52181;DHT22;38158;53.338;6.514;2023-04-03T07:08:25;2.10;99.90
52181;DHT22;38158;53.338;6.514;2023-04-03T07:10:51;1.90;99.90
52181;DHT22;38158;53.338;6.514;2023-04-03T07:13:17;2.30;99.90
52181;DHT22;38158;53.338;6.514;2023-04-03T07:15:43;2.90;99.90
52181;DHT22;38158;53.338;6.514;2023-04-03T07:18:08;2.20;99.90
52181;DHT22;38158;53.338;6.514;2023-04-03T07:20:34;2.30;99.90
52181;DHT22;38158;53.338;6.514;2023-04-03T07:23:00;2.40;99.90
52181;DHT22;38158;53.338;6.514;2023-04-03T07:25:28;2.50;99.90
52181;DHT22;38158;53.338;6.514;2023-04-03T07:27:54;2.80;99.90
52181;DHT22;38158;53.338;6.514;2023-04-03T07:30:23;2.80;99.90
52181;DHT22;38158;53.338;6.514;2023-04-03T07:32:48;2.70;99.90
52181;DHT22;38158;53.338;6.514;2023-04-03T07:35:15;2.80;99.90
52181;DHT22;38158;53.338;6.514;2023-04-03T07:37:41;2.90;99.90
52181;DHT22;38158;53.338;6.514;2023-04-03T07:40:08;3.40;99.90
52181;DHT22;38158;53.338;6.514;2023-04-03T07:42:34;3.10;99.90
52181;DHT22;38158;53.338;6.514;2023-04-03T07:45:01;3.20;99.90
52181;DHT22;38158;53.338;6.514;2023-04-03T07:47:27;3.30;99.90
52181;DHT22;38158;53.338;6.514;2023-04-03T07:49:53;3.70;99.90
52181;DHT22;38158;53.338;6.514;2023-04-03T07:52:19;3.40;99.90
52181;DHT22;38158;53.338;6.514;2023-04-03T07:54:45;3.50;99.90
52181;DHT22;38158;53.338;6.514;2023-04-03T07:57:10;4.90;99.90
52181;DHT22;38158;53.338;6.514;2023-04-03T07:59:37;3.70;99.90
52181;DHT22;38158;53.338;6.514;2023-04-03T08:02:02;3.80;99.90
52181;DHT22;38158;53.338;6.514;2023-04-03T08:04:30;4.10;99.90
52181;DHT22;38158;53.338;6.514;2023-04-03T08:06:56;3.90;99.90
52181;DHT22;38158;53.338;6.514;2023-04-03T08:09:21;4.00;99.90
52181;DHT22;38158;53.338;6.514;2023-04-03T08:11:47;4.00;99.90
52181;DHT22;38158;53.338;6.514;2023-04-03T08:14:13;4.50;99.90
52181;DHT22;38158;53.338;6.514;2023-04-03T08:16:44;4.20;99.90
52181;DHT22;38158;53.338;6.514;2023-04-03T08:19:09;4.20;99.90
52181;DHT22;38158;53.338;6.514;2023-04-03T08:21:36;4.30;99.90
52181;DHT22;38158;53.338;6.514;2023-04-03T08:24:02;4.50;99.90
52181;DHT22;38158;53.338;6.514;2023-04-03T08:26:29;4.50;99.90
52181;DHT22;38158;53.338;6.514;2023-04-03T08:28:55;4.60;99.90
52181;DHT22;38158;53.338;6.514;2023-04-03T08:31:20;4.60;99.90
52181;DHT22;38158;53.338;6.514;2023-04-03T08:33:47;4.70;99.90
52181;DHT22;38158;53.338;6.514;2023-04-03T08:36:21;4.80;99.90
52181;DHT22;38158;53.338;6.514;2023-04-03T08:38:48;4.90;99.90
52181;DHT22;38158;53.338;6.514;2023-04-03T08:41:35;5.00;99.90
52181;DHT22;38158;53.338;6.514;2023-04-03T08:49:56;5.20;99.90
52181;DHT22;38158;53.338;6.514;2023-04-03T08:55:04;5.30;99.90
52181;DHT22;38158;53.338;6.514;2023-04-03T08:57:33;5.40;99.90
52181;DHT22;38158;53.338;6.514;2023-04-03T09:02:45;5.50;99.90
52181;DHT22;38158;53.338;6.514;2023-04-03T09:05:18;5.50;99.90
52181;DHT22;38158;53.338;6.514;2023-04-03T09:10:27;5.70;99.90
52181;DHT22;38158;53.338;6.514;2023-04-03T09:13:01;5.80;99.90
52181;DHT22;38158;53.338;6.514;2023-04-03T09:15:30;5.80;99.90
52181;DHT22;38158;53.338;6.514;2023-04-03T09:23:30;6.00;99.90
52181;DHT22;38158;53.338;6.514;2023-04-03T09:26:13;6.10;99.90
52181;DHT22;38158;53.338;6.514;2023-04-03T09:28:40;6.20;99.90
52181;DHT22;38158;53.338;6.514;2023-04-03T09:33:45;6.40;99.90
52181;DHT22;38158;53.338;6.514;2023-04-03T09:36:12;6.40;99.90
52181;DHT22;38158;53.338;6.514;2023-04-03T09:38:37;6.50;99.90
52181;DHT22;38158;53.338;6.514;2023-04-03T09:41:15;6.50;99.90
52181;DHT22;38158;53.338;6.514;2023-04-03T09:43:52;6.70;99.90
52181;DHT22;38158;53.338;6.514;2023-04-03T09:46:28;6.80;99.90
52181;DHT22;38158;53.338;6.514;2023-04-03T09:49:00;6.70;99.90
52181;DHT22;38158;53.338;6.514;2023-04-03T09:51:27;6.70;99.90
52181;DHT22;38158;53.338;6.514;2023-04-03T09:53:55;7.10;99.90
52181;DHT22;38158;53.338;6.514;2023-04-03T09:56:27;7.00;99.90
52181;DHT22;38158;53.338;6.514;2023-04-03T10:01:37;7.10;99.90
52181;DHT22;38158;53.338;6.514;2023-04-03T10:04:21;7.20;99.90
52181;DHT22;38158;53.338;6.514;2023-04-03T10:06:53;7.20;99.90
52181;DHT22;38158;53.338;6.514;2023-04-03T10:09:25;7.30;99.90
52181;DHT22;38158;53.338;6.514;2023-04-03T10:12:10;7.40;99.90
52181;DHT22;38158;53.338;6.514;2023-04-03T10:20:02;7.50;99.90
52181;DHT22;38158;53.338;6.514;2023-04-03T10:31:34;7.90;99.90
52181;DHT22;38158;53.338;6.514;2023-04-03T10:45:01;8.10;99.90
52181;DHT22;38158;53.338;6.514;2023-04-03T10:51:00;8.20;99.40
52181;DHT22;38158;53.338;6.514;2023-04-03T10:59:21;8.20;97.50
52181;DHT22;38158;53.338;6.514;2023-04-03T11:01:51;8.20;97.80
52181;DHT22;38158;53.338;6.514;2023-04-03T11:04:20;8.30;99.90
52181;DHT22;38158;53.338;6.514;2023-04-03T11:06:52;8.30;98.40
52181;DHT22;38158;53.338;6.514;2023-04-03T11:09:31;8.40;95.80
52181;DHT22;38158;53.338;6.514;2023-04-03T11:12:14;8.50;94.20
52181;DHT22;38158;53.338;6.514;2023-04-03T11:14:41;8.50;96.00
52181;DHT22;38158;53.338;6.514;2023-04-03T11:17:38;8.50;97.90
52181;DHT22;38158;53.338;6.514;2023-04-03T11:20:16;8.50;93.20
52181;DHT22;38158;53.338;6.514;2023-04-03T11:22:47;8.50;97.00
52181;DHT22;38158;53.338;6.514;2023-04-03T11:25:19;8.60;96.60
52181;DHT22;38158;53.338;6.514;2023-04-03T11:27:59;8.70;96.80
52181;DHT22;38158;53.338;6.514;2023-04-03T11:35:51;8.80;90.60
52181;DHT22;38158;53.338;6.514;2023-04-03T11:38:34;8.90;91.30
52181;DHT22;38158;53.338;6.514;2023-04-03T11:41:05;8.90;90.90
52181;DHT22;38158;53.338;6.514;2023-04-03T11:43:33;8.90;90.80
52181;DHT22;38158;53.338;6.514;2023-04-03T11:46:01;9.00;89.60
52181;DHT22;38158;53.338;6.514;2023-04-03T11:53:43;9.10;76.30
52181;DHT22;38158;53.338;6.514;2023-04-03T12:01:49;9.10;79.80
52181;DHT22;38158;53.338;6.514;2023-04-03T12:04:17;9.00;78.00
52181;DHT22;38158;53.338;6.514;2023-04-03T12:06:51;9.10;79.00
52181;DHT22;38158;53.338;6.514;2023-04-03T12:09:31;9.10;79.40
52181;DHT22;38158;53.338;6.514;2023-04-03T12:12:00;9.10;76.00
52181;DHT22;38158;53.338;6.514;2023-04-03T12:14:27;9.10;82.30
52181;DHT22;38158;53.338;6.514;2023-04-03T12:16:55;9.10;82.50
52181;DHT22;38158;53.338;6.514;2023-04-03T12:19:30;9.20;83.30
52181;DHT22;38158;53.338;6.514;2023-04-03T12:29:58;9.70;81.90
52181;DHT22;38158;53.338;6.514;2023-04-03T12:41:19;9.80;87.80
52181;DHT22;38158;53.338;6.514;2023-04-03T12:46:48;9.90;79.70
52181;DHT22;38158;53.338;6.514;2023-04-03T12:51:50;9.90;83.40
52181;DHT22;38158;53.338;6.514;2023-04-03T12:54:23;10.70;97.60
52181;DHT22;38158;53.338;6.514;2023-04-03T12:57:08;12.00;90.20
52181;DHT22;38158;53.338;6.514;2023-04-03T12:59:34;12.40;79.70
52181;DHT22;38158;53.338;6.514;2023-04-03T13:02:01;12.00;81.30
52181;DHT22;38158;53.338;6.514;2023-04-03T13:04:28;11.80;80.10
52181;DHT22;38158;53.338;6.514;2023-04-03T13:06:54;11.60;79.80
52181;DHT22;38158;53.338;6.514;2023-04-03T13:11:47;11.00;82.00
52181;DHT22;38158;53.338;6.514;2023-04-03T13:14:20;10.80;72.40
52181;DHT22;38158;53.338;6.514;2023-04-03T13:17:13;10.60;81.20
52181;DHT22;38158;53.338;6.514;2023-04-03T13:19:40;10.60;77.90
52181;DHT22;38158;53.338;6.514;2023-04-03T13:24:59;10.50;84.40
52181;DHT22;38158;53.338;6.514;2023-04-03T13:27:28;10.40;89.40
52181;DHT22;38158;53.338;6.514;2023-04-03T13:29:57;10.30;90.70
52181;DHT22;38158;53.338;6.514;2023-04-03T13:32:27;10.20;89.90
52181;DHT22;38158;53.338;6.514;2023-04-03T13:34:53;10.10;91.20
52181;DHT22;38158;53.338;6.514;2023-04-03T13:37:32;10.10;91.90
52181;DHT22;38158;53.338;6.514;2023-04-03T13:42:33;10.00;88.80
52181;DHT22;38158;53.338;6.514;2023-04-03T13:45:22;9.90;89.00
52181;DHT22;38158;53.338;6.514;2023-04-03T13:47:51;9.90;86.50
52181;DHT22;38158;53.338;6.514;2023-04-03T13:50:22;9.80;91.10
52181;DHT22;38158;53.338;6.514;2023-04-03T13:53:09;9.80;91.10
52181;DHT22;38158;53.338;6.514;2023-04-03T13:55:51;9.70;87.70
52181;DHT22;38158;53.338;6.514;2023-04-03T13:58:29;9.70;91.20
52181;DHT22;38158;53.338;6.514;2023-04-03T14:03:32;9.60;91.30
52181;DHT22;38158;53.338;6.514;2023-04-03T14:05:58;9.60;92.50
52181;DHT22;38158;53.338;6.514;2023-04-03T14:08:25;9.70;93.50
52181;DHT22;38158;53.338;6.514;2023-04-03T14:10:52;9.70;92.80
52181;DHT22;38158;53.338;6.514;2023-04-03T14:13:19;9.60;90.20
52181;DHT22;38158;53.338;6.514;2023-04-03T14:15:47;9.60;92.30
52181;DHT22;38158;53.338;6.514;2023-04-03T14:18:15;9.60;94.50
52181;DHT22;38158;53.338;6.514;2023-04-03T14:20:43;9.60;95.10
52181;DHT22;38158;53.338;6.514;2023-04-03T14:23:09;9.60;95.10
52181;DHT22;38158;53.338;6.514;2023-04-03T14:25:35;9.60;96.70
52181;DHT22;38158;53.338;6.514;2023-04-03T14:28:01;9.60;96.90
52181;DHT22;38158;53.338;6.514;2023-04-03T14:30:37;9.60;97.20
52181;DHT22;38158;53.338;6.514;2023-04-03T14:33:03;9.60;97.20
52181;DHT22;38158;53.338;6.514;2023-04-03T14:35:29;9.70;95.60
52181;DHT22;38158;53.338;6.514;2023-04-03T14:37:55;9.60;94.80
52181;DHT22;38158;53.338;6.514;2023-04-03T14:40:25;9.60;95.60
52181;DHT22;38158;53.338;6.514;2023-04-03T14:42:51;9.70;95.90
52181;DHT22;38158;53.338;6.514;2023-04-03T14:45:21;9.70;94.60
52181;DHT22;38158;53.338;6.514;2023-04-03T14:47:54;9.60;94.20
52181;DHT22;38158;53.338;6.514;2023-04-03T14:50:25;9.60;93.70
52181;DHT22;38158;53.338;6.514;2023-04-03T14:52:54;9.70;92.70
52181;DHT22;38158;53.338;6.514;2023-04-03T14:55:22;9.60;94.20
52181;DHT22;38158;53.338;6.514;2023-04-03T14:57:48;9.60;91.70
52181;DHT22;38158;53.338;6.514;2023-04-03T15:00:20;9.50;91.60
52181;DHT22;38158;53.338;6.514;2023-04-03T15:02:46;9.50;91.00
52181;DHT22;38158;53.338;6.514;2023-04-03T15:05:14;9.50;91.50
52181;DHT22;38158;53.338;6.514;2023-04-03T15:07:48;9.50;91.50
52181;DHT22;38158;53.338;6.514;2023-04-03T15:10:19;9.50;91.20
52181;DHT22;38158;53.338;6.514;2023-04-03T15:12:46;9.40;91.60
52181;DHT22;38158;53.338;6.514;2023-04-03T15:15:13;9.40;91.30
52181;DHT22;38158;53.338;6.514;2023-04-03T15:17:39;9.40;91.00
52181;DHT22;38158;53.338;6.514;2023-04-03T15:20:17;9.30;90.80
52181;DHT22;38158;53.338;6.514;2023-04-03T15:22:43;9.30;88.70
52181;DHT22;38158;53.338;6.514;2023-04-03T15:25:09;9.10;90.80
52181;DHT22;38158;53.338;6.514;2023-04-03T15:27:36;9.10;91.20
52181;DHT22;38158;53.338;6.514;2023-04-03T15:30:03;9.10;91.30
52181;DHT22;38158;53.338;6.514;2023-04-03T15:32:30;9.10;91.70
52181;DHT22;38158;53.338;6.514;2023-04-03T15:34:56;9.00;91.50
52181;DHT22;38158;53.338;6.514;2023-04-03T15:37:21;9.00;92.50
52181;DHT22;38158;53.338;6.514;2023-04-03T15:39:47;8.90;92.60
52181;DHT22;38158;53.338;6.514;2023-04-03T15:42:13;8.80;92.80
52181;DHT22;38158;53.338;6.514;2023-04-03T15:44:39;8.80;93.70
52181;DHT22;38158;53.338;6.514;2023-04-03T15:47:05;8.80;95.40
52181;DHT22;38158;53.338;6.514;2023-04-03T15:49:32;8.70;95.70
52181;DHT22;38158;53.338;6.514;2023-04-03T15:51:59;8.70;95.10
52181;DHT22;38158;53.338;6.514;2023-04-03T15:54:25;8.70;95.60
52181;DHT22;38158;53.338;6.514;2023-04-03T15:56:51;8.60;95.70
52181;DHT22;38158;53.338;6.514;2023-04-03T15:59:17;8.50;96.40
52181;DHT22;38158;53.338;6.514;2023-04-03T16:01:43;8.50;96.30
52181;DHT22;38158;53.338;6.514;2023-04-03T16:04:09;8.40;97.70
52181;DHT22;38158;53.338;6.514;2023-04-03T16:06:36;8.30;99.20
52181;DHT22;38158;53.338;6.514;2023-04-03T16:09:02;8.30;98.40
52181;DHT22;38158;53.338;6.514;2023-04-03T16:11:28;8.20;98.50
52181;DHT22;38158;53.338;6.514;2023-04-03T16:13:55;8.20;98.90
52181;DHT22;38158;53.338;6.514;2023-04-03T16:16:21;8.10;99.90
52181;DHT22;38158;53.338;6.514;2023-04-03T16:18:47;8.10;99.90
52181;DHT22;38158;53.338;6.514;2023-04-03T16:21:15;8.10;99.70
52181;DHT22;38158;53.338;6.514;2023-04-03T16:23:41;8.10;99.80
52181;DHT22;38158;53.338;6.514;2023-04-03T16:26:07;8.00;99.90
52181;DHT22;38158;53.338;6.514;2023-04-03T16:28:32;8.00;99.90
52181;DHT22;38158;53.338;6.514;2023-04-03T16:31:00;8.00;99.90
52181;DHT22;38158;53.338;6.514;2023-04-03T16:33:26;7.90;99.90
52181;DHT22;38158;53.338;6.514;2023-04-03T16:35:52;7.90;99.90
52181;DHT22;38158;53.338;6.514;2023-04-03T16:38:18;7.80;99.90
52181;DHT22;38158;53.338;6.514;2023-04-03T16:40:45;7.70;99.90
52181;DHT22;38158;53.338;6.514;2023-04-03T16:43:10;7.70;99.90
52181;DHT22;38158;53.338;6.514;2023-04-03T16:45:37;7.60;99.90
52181;DHT22;38158;53.338;6.514;2023-04-03T16:48:03;7.50;99.90
52181;DHT22;38158;53.338;6.514;2023-04-03T16:50:29;7.40;99.90
52181;DHT22;38158;53.338;6.514;2023-04-03T16:52:54;7.40;99.90
52181;DHT22;38158;53.338;6.514;2023-04-03T16:55:20;7.30;99.90
52181;DHT22;38158;53.338;6.514;2023-04-03T16:57:46;7.20;99.90
52181;DHT22;38158;53.338;6.514;2023-04-03T17:00:12;7.20;99.90
52181;DHT22;38158;53.338;6.514;2023-04-03T17:02:39;7.10;99.90
52181;DHT22;38158;53.338;6.514;2023-04-03T17:05:06;7.00;99.90
52181;DHT22;38158;53.338;6.514;2023-04-03T17:07:32;6.90;99.90
52181;DHT22;38158;53.338;6.514;2023-04-03T17:09:58;6.90;99.90
52181;DHT22;38158;53.338;6.514;2023-04-03T17:12:24;6.90;99.90
52181;DHT22;38158;53.338;6.514;2023-04-03T17:14:50;6.80;99.90
52181;DHT22;38158;53.338;6.514;2023-04-03T17:17:19;6.80;99.90
52181;DHT22;38158;53.338;6.514;2023-04-03T17:19:45;6.80;99.90
52181;DHT22;38158;53.338;6.514;2023-04-03T17:22:11;6.80;99.90
52181;DHT22;38158;53.338;6.514;2023-04-03T17:24:37;6.70;99.90
52181;DHT22;38158;53.338;6.514;2023-04-03T17:27:03;6.60;99.90
52181;DHT22;38158;53.338;6.514;2023-04-03T17:29:29;6.50;99.90
52181;DHT22;38158;53.338;6.514;2023-04-03T17:31:55;6.40;99.90
52181;DHT22;38158;53.338;6.514;2023-04-03T17:34:20;6.30;99.90
52181;DHT22;38158;53.338;6.514;2023-04-03T17:36:46;6.20;99.90
52181;DHT22;38158;53.338;6.514;2023-04-03T17:39:12;6.20;99.90
52181;DHT22;38158;53.338;6.514;2023-04-03T17:41:38;6.10;99.90
52181;DHT22;38158;53.338;6.514;2023-04-03T17:44:04;6.00;99.90
52181;DHT22;38158;53.338;6.514;2023-04-03T17:46:30;6.00;99.90
52181;DHT22;38158;53.338;6.514;2023-04-03T17:48:56;5.90;99.90